Mobile Regional Airport
KMOB : now visible

Airfield :











YOU CAN JOIN US ON...

 
LOGIN :

Register | Disclaimer

   EN    FR    IT 

 









Legend :    VFR   Marginal VFR   IFR   Intensive IFR   Very Intensive IFR
Visi :
Ceiling :
>= 8 km
>= 3000ft
5 to 8 km
1000 to 3000 ft
1500m to 5 km
500 to 1000 ft
800 to 1500m
200 to 500 ft
< 800m
< 200 ft
Symbols :   Thunderstorms  Fog  Heavy snow  Heavy precipitations  Wind > 20 kt







- Airport Elevation : 219 ft
- IATA code : MOB


KMOB - Mobile Regional

CURRENT METAR :
  • 260256Z 13003KT 10SM BKN080 BKN100 BKN250 26/25 A2995 RMK AO2 SLP138 T02610250 51013 $

EXPIRED METARs :
  • 260156Z 15003KT 10SM FEW100 SCT250 26/26 A2994 RMK AO2 SLP135 T02610256 $
  • 260056Z 00000KT 10SM FEW050 SCT200 26/26 A2992 RMK AO2 SLP129 T02610256 $

TAF KMOB
Valid from the 26 at 00:00 until the 27 at 00:00 UTC


252322Z 2600/2624 00000KT P6SM VCTS FEW025 SCT050CB SCT200
TEMPO 2600/2604 18015G25KT 3SM TSRA BKN020CB
FM260400 12003KT P6SM VCSH OVC030
FM261200 12004KT P6SM VCSH OVC015
TEMPO 2613/2617 2SM TSRA BKN015CB
FM261700 20008KT P6SM VCTS OVC025CB
TEMPO 2617/2621 2SM TSRA BKN015CB
No reported NOTAMs for that airfield.



MET'MAP, your aeronautical weather chart ! - Copyright ORBIFLY December 2007 - Disclaimer

ORBIFLY MET'MAP TEAM :

Programming & Development : Alexandra Zaïnal
Concept & Development : Baudouin d'Aumeries
Co-Development & Prog : Marc-Olivier Méhu
Technical & hardware support : Manuel Goepfert

Contact : metmap@orbifly.com




SOURCES & CREDITS :

   NOAA       Earth
Advisory